PWSweather.com
Personal Weather Stations
Station Observations
KNCCHINA3
Red Tractor Trail, China Grove, NC 28023

Red Tractor TrailChina Grove, NC 28023

Lat: 35.59751, Lon: -80.60201

Elevation: 800

Station Type: Oregon Scientific WMR 968

http://www.joesweathergarage.com

Latest ConditionsUpdated 6:36:00 PM EST Saturday, Dec 20, 2014
Currently Today's Max Today's Min Today's Average
Temperature 41.0°F5.0°C 47.3°F8.5°C 39.2°F4.0°C 42.2°F5.7°C
Dew Point 34.4°F1.3°C 34.4°F1.3°C 28.2°F-2.1°C 30.9°F-0.6°C
Winds 2.3 mph ESE3.7 kmh ESE 6.8 mph NNE10.9 kmh NNE - 2.0 mph 3.2 kmh
Wind Gusts 5.0 mph8.0 kmh 9.0 mph14.5 kmh - -
Humidity 77% 77% 59% 64%
Pressure 30.27 in1025.1 mb 30.27 in1025.1 mb 30.15 in1021.0 mb -
Hour Temp Dew Point Humidity Winds Wind Gusts Pressure Precip Precip Rate Daily Precip Total
06:36 PM 41.0°F5.0°C 34.4°F1.3°C 77% 2.3 mph ESE3.7 kmh ESE 5.0 mph8.0 kmh 30.27 in1025.1 mb 0.00 in0.0 mm 0.00 in/hr0.0 mm/hr 0.00 in0.0 mm
06:30 PM 41.0°F5.0°C 34.0°F1.1°C 76% 3.3 mph E5.3 kmh E 4.0 mph6.4 kmh 30.27 in1025.1 mb 0.00 in0.0 mm 0.00 in/hr0.0 mm/hr 0.00 in0.0 mm
06:24 PM 41.4°F5.2°C 34.1°F1.2°C 75% 2.0 mph E3.2 kmh E 4.0 mph6.4 kmh 30.27 in1025.1 mb 0.00 in0.0 mm 0.00 in/hr0.0 mm/hr 0.00 in0.0 mm
06:19 PM 41.5°F5.3°C 33.8°F1.0°C 74% 2.3 mph E3.7 kmh E 4.0 mph6.4 kmh 30.24 in1024.0 mb 0.00 in0.0 mm 0.00 in/hr0.0 mm/hr 0.00 in0.0 mm
06:14 PM 41.7°F5.4°C 34.0°F1.1°C 74% 2.3 mph E3.7 kmh E 3.2 mph5.1 kmh 30.24 in1024.0 mb 0.00 in0.0 mm 0.00 in/hr0.0 mm/hr 0.00 in0.0 mm
06:09 PM 42.1°F5.6°C 34.0°F1.1°C 73% 2.6 mph E4.2 kmh E 3.2 mph5.1 kmh 30.24 in1024.0 mb 0.00 in0.0 mm 0.00 in/hr0.0 mm/hr 0.00 in0.0 mm
06:04 PM 42.3°F5.7°C 33.8°F1.0°C 72% 1.8 mph E2.9 kmh E 3.2 mph5.1 kmh 30.24 in1024.0 mb 0.00 in0.0 mm 0.00 in/hr0.0 mm/hr 0.00 in0.0 mm
05:59 PM 42.6°F5.9°C 33.7°F0.9°C 70% 2.2 mph E3.5 kmh E 3.2 mph5.1 kmh 30.24 in1024.0 mb 0.00 in0.0 mm 0.00 in/hr0.0 mm/hr 0.00 in0.0 mm
05:54 PM 42.8°F6.0°C 33.5°F0.8°C 69% 2.3 mph E3.7 kmh E 4.4 mph7.1 kmh 30.24 in1024.0 mb 0.00 in0.0 mm 0.00 in/hr0.0 mm/hr 0.00 in0.0 mm
05:49 PM 43.2°F6.2°C 33.9°F1.1°C 69% 2.4 mph E3.9 kmh E 4.4 mph7.1 kmh 30.24 in1024.0 mb 0.00 in0.0 mm 0.00 in/hr0.0 mm/hr 0.00 in0.0 mm
05:44 PM 43.5°F6.4°C 33.8°F1.0°C 68% 2.3 mph E3.7 kmh E 4.4 mph7.1 kmh 30.24 in1024.0 mb 0.00 in0.0 mm 0.00 in/hr0.0 mm/hr 0.00 in0.0 mm
05:39 PM 43.7°F6.5°C 33.6°F0.9°C 67% 3.5 mph E5.6 kmh E 4.4 mph7.1 kmh 30.24 in1024.0 mb 0.00 in0.0 mm 0.00 in/hr0.0 mm/hr 0.00 in0.0 mm
05:34 PM 43.9°F6.6°C 33.8°F1.0°C 67% 2.1 mph E3.4 kmh E 2.2 mph3.5 kmh 30.24 in1024.0 mb 0.00 in0.0 mm 0.00 in/hr0.0 mm/hr 0.00 in0.0 mm
05:29 PM 44.1°F6.7°C 33.6°F0.9°C 66% Calm Calm 2.2 mph3.5 kmh 30.24 in1024.0 mb 0.00 in0.0 mm 0.00 in/hr0.0 mm/hr 0.00 in0.0 mm
05:24 PM 44.1°F6.7°C 33.6°F0.9°C 66% Calm Calm 2.2 mph3.5 kmh 30.24 in1024.0 mb 0.00 in0.0 mm 0.00 in/hr0.0 mm/hr 0.00 in0.0 mm
05:19 PM 44.2°F6.8°C 33.2°F0.7°C 65% Calm Calm -- 30.24 in1024.0 mb 0.00 in0.0 mm 0.00 in/hr0.0 mm/hr 0.00 in0.0 mm
05:14 PM 44.4°F6.9°C 33.4°F0.8°C 65% Calm Calm -- 30.24 in1024.0 mb 0.00 in0.0 mm 0.00 in/hr0.0 mm/hr 0.00 in0.0 mm
05:09 PM 44.4°F6.9°C 33.4°F0.8°C 65% Calm Calm -- 30.24 in1024.0 mb 0.00 in0.0 mm 0.00 in/hr0.0 mm/hr 0.00 in0.0 mm
05:03 PM 44.6°F7.0°C 33.2°F0.7°C 64% Calm Calm -- 30.24 in1024.0 mb 0.00 in0.0 mm 0.00 in/hr0.0 mm/hr 0.00 in0.0 mm
04:58 PM 44.8°F7.1°C 33.4°F0.8°C 64% Calm Calm -- 30.24 in1024.0 mb 0.00 in0.0 mm 0.00 in/hr0.0 mm/hr 0.00 in0.0 mm
04:53 PM 45.0°F7.2°C 33.1°F0.6°C 63% Calm Calm -- 30.24 in1024.0 mb 0.00 in0.0 mm 0.00 in/hr0.0 mm/hr 0.00 in0.0 mm
04:48 PM 45.1°F7.3°C 33.2°F0.7°C 63% Calm Calm -- 30.24 in1024.0 mb 0.00 in0.0 mm 0.00 in/hr0.0 mm/hr 0.00 in0.0 mm
04:43 PM 45.1°F7.3°C 33.2°F0.7°C 63% Calm Calm 2.6 mph4.2 kmh 30.24 in1024.0 mb 0.00 in0.0 mm 0.00 in/hr0.0 mm/hr 0.00 in0.0 mm
04:38 PM 45.3°F7.4°C 33.4°F0.8°C 63% 1.9 mph E3.1 kmh E 3.2 mph5.1 kmh 30.24 in1024.0 mb 0.00 in0.0 mm 0.00 in/hr0.0 mm/hr 0.00 in0.0 mm
04:33 PM 45.5°F7.5°C 33.2°F0.7°C 62% Calm Calm 3.2 mph5.1 kmh 30.21 in1023.0 mb 0.00 in0.0 mm 0.00 in/hr0.0 mm/hr 0.00 in0.0 mm
04:28 PM 45.5°F7.5°C 33.2°F0.7°C 62% Calm Calm 2.2 mph3.5 kmh 30.21 in1023.0 mb 0.00 in0.0 mm 0.00 in/hr0.0 mm/hr 0.00 in0.0 mm
04:23 PM 45.7°F7.6°C 33.3°F0.7°C 62% Calm Calm -- 30.21 in1023.0 mb 0.00 in0.0 mm 0.00 in/hr0.0 mm/hr 0.00 in0.0 mm
04:18 PM 45.7°F7.6°C 33.3°F0.7°C 62% Calm Calm 4.4 mph7.1 kmh 30.21 in1023.0 mb 0.00 in0.0 mm 0.00 in/hr0.0 mm/hr 0.00 in0.0 mm
04:13 PM 45.7°F7.6°C 33.3°F0.7°C 62% 1.8 mph E2.9 kmh E 4.4 mph7.1 kmh 30.21 in1023.0 mb 0.00 in0.0 mm 0.00 in/hr0.0 mm/hr 0.00 in0.0 mm
04:08 PM 46.0°F7.8°C 33.6°F0.9°C 62% 3.9 mph E6.3 kmh E 4.4 mph7.1 kmh 30.21 in1023.0 mb 0.00 in0.0 mm 0.00 in/hr0.0 mm/hr 0.00 in0.0 mm
04:02 PM 46.0°F7.8°C 33.2°F0.7°C 61% Calm Calm 4.0 mph6.4 kmh 30.21 in1023.0 mb 0.00 in0.0 mm 0.00 in/hr0.0 mm/hr 0.00 in0.0 mm
03:57 PM 45.9°F7.7°C 33.1°F0.6°C 61% 1.8 mph E2.9 kmh E 4.4 mph7.1 kmh 30.21 in1023.0 mb 0.00 in0.0 mm 0.00 in/hr0.0 mm/hr 0.00 in0.0 mm
03:52 PM 46.0°F7.8°C 33.2°F0.7°C 61% 2.0 mph SSE3.2 kmh SSE 4.4 mph7.1 kmh 30.21 in1023.0 mb 0.00 in0.0 mm 0.00 in/hr0.0 mm/hr 0.00 in0.0 mm
03:47 PM 46.4°F8.0°C 33.1°F0.6°C 59% 2.7 mph E4.3 kmh E 4.4 mph7.1 kmh 30.21 in1023.0 mb 0.00 in0.0 mm 0.00 in/hr0.0 mm/hr 0.00 in0.0 mm
03:42 PM 46.6°F8.1°C 33.3°F0.7°C 59% 1.9 mph ENE3.1 kmh ENE 2.2 mph3.5 kmh 30.21 in1023.0 mb 0.00 in0.0 mm 0.00 in/hr0.0 mm/hr 0.00 in0.0 mm
03:37 PM 46.6°F8.1°C 33.3°F0.7°C 59% Calm Calm 4.0 mph6.4 kmh 30.18 in1022.0 mb 0.00 in0.0 mm 0.00 in/hr0.0 mm/hr 0.00 in0.0 mm
03:32 PM 46.6°F8.1°C 33.3°F0.7°C 59% 2.1 mph E3.4 kmh E 4.0 mph6.4 kmh 30.18 in1022.0 mb 0.00 in0.0 mm 0.00 in/hr0.0 mm/hr 0.00 in0.0 mm
03:27 PM 46.6°F8.1°C 33.3°F0.7°C 59% 2.3 mph ESE3.7 kmh ESE 4.0 mph6.4 kmh 30.18 in1022.0 mb 0.00 in0.0 mm 0.00 in/hr0.0 mm/hr 0.00 in0.0 mm
03:21 PM 46.8°F8.2°C 33.5°F0.8°C 59% Calm Calm 3.2 mph5.1 kmh 30.18 in1022.0 mb 0.00 in0.0 mm 0.00 in/hr0.0 mm/hr 0.00 in0.0 mm
03:16 PM 47.1°F8.4°C 33.7°F0.9°C 59% 3.2 mph SE5.1 kmh SE 3.2 mph5.1 kmh 30.18 in1022.0 mb 0.00 in0.0 mm 0.00 in/hr0.0 mm/hr 0.00 in0.0 mm
03:10 PM 47.3°F8.5°C 33.9°F1.1°C 59% Calm Calm 4.0 mph6.4 kmh 30.18 in1022.0 mb 0.00 in0.0 mm 0.00 in/hr0.0 mm/hr 0.00 in0.0 mm
03:05 PM 47.3°F8.5°C 33.9°F1.1°C 59% 1.9 mph ENE3.1 kmh ENE 4.0 mph6.4 kmh 30.21 in1023.0 mb 0.00 in0.0 mm 0.00 in/hr0.0 mm/hr 0.00 in0.0 mm
03:00 PM 47.3°F8.5°C 33.9°F1.1°C 59% Calm Calm 5.0 mph8.0 kmh 30.21 in1023.0 mb 0.00 in0.0 mm 0.00 in/hr0.0 mm/hr 0.00 in0.0 mm
02:55 PM 46.6°F8.1°C 33.3°F0.7°C 59% 2.2 mph NNW3.5 kmh NNW 5.0 mph8.0 kmh 30.21 in1023.0 mb 0.00 in0.0 mm 0.00 in/hr0.0 mm/hr 0.00 in0.0 mm
02:50 PM 47.1°F8.4°C 33.7°F0.9°C 59% 3.0 mph ESE4.8 kmh ESE 5.0 mph8.0 kmh 30.18 in1022.0 mb 0.00 in0.0 mm 0.00 in/hr0.0 mm/hr 0.00 in0.0 mm
02:45 PM 47.3°F8.5°C 33.9°F1.1°C 59% 3.3 mph E5.3 kmh E 5.8 mph9.3 kmh 30.18 in1022.0 mb 0.00 in0.0 mm 0.00 in/hr0.0 mm/hr 0.00 in0.0 mm
02:40 PM 47.3°F8.5°C 33.9°F1.1°C 59% 4.1 mph E6.6 kmh E 5.8 mph9.3 kmh 30.18 in1022.0 mb 0.00 in0.0 mm 0.00 in/hr0.0 mm/hr 0.00 in0.0 mm
02:35 PM 47.3°F8.5°C 33.9°F1.1°C 59% 2.5 mph ENE4.0 kmh ENE 5.8 mph9.3 kmh 30.18 in1022.0 mb 0.00 in0.0 mm 0.00 in/hr0.0 mm/hr 0.00 in0.0 mm
02:30 PM 47.1°F8.4°C 33.7°F0.9°C 59% 4.9 mph ESE7.9 kmh ESE 5.8 mph9.3 kmh 30.18 in1022.0 mb 0.00 in0.0 mm 0.00 in/hr0.0 mm/hr 0.00 in0.0 mm
02:25 PM 46.8°F8.2°C 33.5°F0.8°C 59% 2.7 mph N4.3 kmh N 4.4 mph7.1 kmh 30.18 in1022.0 mb 0.00 in0.0 mm 0.00 in/hr0.0 mm/hr 0.00 in0.0 mm
02:19 PM 46.8°F8.2°C 33.5°F0.8°C 59% 2.3 mph E3.7 kmh E 4.4 mph7.1 kmh 30.18 in1022.0 mb 0.00 in0.0 mm 0.00 in/hr0.0 mm/hr 0.00 in0.0 mm
02:14 PM 46.6°F8.1°C 33.3°F0.7°C 59% Calm Calm 5.8 mph9.3 kmh 30.18 in1022.0 mb 0.00 in0.0 mm 0.00 in/hr0.0 mm/hr 0.00 in0.0 mm
02:09 PM 46.2°F7.9°C 33.4°F0.8°C 61% Calm Calm 6.2 mph10.0 kmh 30.18 in1022.0 mb 0.00 in0.0 mm 0.00 in/hr0.0 mm/hr 0.00 in0.0 mm
02:04 PM 46.0°F7.8°C 33.2°F0.7°C 61% 5.2 mph ESE8.4 kmh ESE 7.6 mph12.2 kmh 30.18 in1022.0 mb 0.00 in0.0 mm 0.00 in/hr0.0 mm/hr 0.00 in0.0 mm
01:59 PM 46.0°F7.8°C 33.2°F0.7°C 61% 4.5 mph ESE7.2 kmh ESE 7.6 mph12.2 kmh 30.18 in1022.0 mb 0.00 in0.0 mm 0.00 in/hr0.0 mm/hr 0.00 in0.0 mm
01:54 PM 46.2°F7.9°C 33.4°F0.8°C 61% 3.4 mph E5.5 kmh E 5.0 mph8.0 kmh 30.18 in1022.0 mb 0.00 in0.0 mm 0.00 in/hr0.0 mm/hr 0.00 in0.0 mm
01:48 PM 46.2°F7.9°C 33.4°F0.8°C 61% 3.0 mph E4.8 kmh E 5.0 mph8.0 kmh 30.21 in1023.0 mb 0.00 in0.0 mm 0.00 in/hr0.0 mm/hr 0.00 in0.0 mm
01:43 PM 46.2°F7.9°C 33.4°F0.8°C 61% Calm Calm 5.0 mph8.0 kmh 30.21 in1023.0 mb 0.00 in0.0 mm 0.00 in/hr0.0 mm/hr 0.00 in0.0 mm
01:38 PM 46.0°F7.8°C 33.6°F0.9°C 62% 2.1 mph E3.4 kmh E 4.0 mph6.4 kmh 30.21 in1023.0 mb 0.00 in0.0 mm 0.00 in/hr0.0 mm/hr 0.00 in0.0 mm
01:33 PM 45.9°F7.7°C 33.5°F0.8°C 62% 3.1 mph ESE5.0 kmh ESE 4.0 mph6.4 kmh 30.21 in1023.0 mb 0.00 in0.0 mm 0.00 in/hr0.0 mm/hr 0.00 in0.0 mm
01:28 PM 45.7°F7.6°C 33.3°F0.7°C 62% Calm Calm -- 30.21 in1023.0 mb 0.00 in0.0 mm 0.00 in/hr0.0 mm/hr 0.00 in0.0 mm
01:23 PM 45.5°F7.5°C 33.2°F0.7°C 62% Calm Calm 1.8 mph2.9 kmh 30.21 in1023.0 mb 0.00 in0.0 mm 0.00 in/hr0.0 mm/hr 0.00 in0.0 mm
01:18 PM 45.5°F7.5°C 33.2°F0.7°C 62% 1.8 mph ENE2.9 kmh ENE 3.2 mph5.1 kmh 30.21 in1023.0 mb 0.00 in0.0 mm 0.00 in/hr0.0 mm/hr 0.00 in0.0 mm
01:13 PM 45.5°F7.5°C 33.2°F0.7°C 62% 2.1 mph ENE3.4 kmh ENE 4.4 mph7.1 kmh 30.21 in1023.0 mb 0.00 in0.0 mm 0.00 in/hr0.0 mm/hr 0.00 in0.0 mm
01:08 PM 45.5°F7.5°C 33.2°F0.7°C 62% 3.6 mph ESE5.8 kmh ESE 4.4 mph7.1 kmh 30.21 in1023.0 mb 0.00 in0.0 mm 0.00 in/hr0.0 mm/hr 0.00 in0.0 mm
01:03 PM 45.3°F7.4°C 33.0°F0.6°C 62% 2.2 mph NE3.5 kmh NE 5.8 mph9.3 kmh 30.21 in1023.0 mb 0.00 in0.0 mm 0.00 in/hr0.0 mm/hr 0.00 in0.0 mm
12:58 PM 45.3°F7.4°C 33.0°F0.6°C 62% 4.1 mph ESE6.6 kmh ESE 5.8 mph9.3 kmh 30.21 in1023.0 mb 0.00 in0.0 mm 0.00 in/hr0.0 mm/hr 0.00 in0.0 mm
12:53 PM 45.1°F7.3°C 32.8°F0.4°C 62% 2.4 mph SW3.9 kmh SW 5.0 mph8.0 kmh 30.21 in1023.0 mb 0.00 in0.0 mm 0.00 in/hr0.0 mm/hr 0.00 in0.0 mm
12:48 PM 45.3°F7.4°C 33.4°F0.8°C 63% 3.5 mph ESE5.6 kmh ESE 5.0 mph8.0 kmh 30.21 in1023.0 mb 0.00 in0.0 mm 0.00 in/hr0.0 mm/hr 0.00 in0.0 mm
12:43 PM 44.8°F7.1°C 32.5°F0.3°C 62% 3.1 mph ENE5.0 kmh ENE 4.0 mph6.4 kmh 30.21 in1023.0 mb 0.00 in0.0 mm 0.00 in/hr0.0 mm/hr 0.00 in0.0 mm
12:38 PM 44.4°F6.9°C 32.6°F0.3°C 63% Calm Calm 1.8 mph2.9 kmh 30.21 in1023.0 mb 0.00 in0.0 mm 0.00 in/hr0.0 mm/hr 0.00 in0.0 mm
12:32 PM 44.2°F6.8°C 32.4°F0.2°C 63% Calm Calm 5.0 mph8.0 kmh 30.24 in1024.0 mb 0.00 in0.0 mm 0.00 in/hr0.0 mm/hr 0.00 in0.0 mm
12:28 PM 44.1°F6.7°C 32.3°F0.2°C 63% 2.0 mph E3.2 kmh E 6.8 mph10.9 kmh 30.24 in1024.0 mb 0.00 in0.0 mm 0.00 in/hr0.0 mm/hr 0.00 in0.0 mm
12:23 PM 44.1°F6.7°C 32.3°F0.2°C 63% 4.8 mph ESE7.7 kmh ESE 6.8 mph10.9 kmh 30.24 in1024.0 mb 0.00 in0.0 mm 0.00 in/hr0.0 mm/hr 0.00 in0.0 mm
12:18 PM 44.1°F6.7°C 32.3°F0.2°C 63% 3.0 mph E4.8 kmh E 5.8 mph9.3 kmh 30.24 in1024.0 mb 0.00 in0.0 mm 0.00 in/hr0.0 mm/hr 0.00 in0.0 mm
12:12 PM 43.7°F6.5°C 31.9°F-0.1°C 63% 2.8 mph E4.5 kmh E 5.8 mph9.3 kmh 30.24 in1024.0 mb 0.00 in0.0 mm 0.00 in/hr0.0 mm/hr 0.00 in0.0 mm
12:07 PM 43.5°F6.4°C 31.7°F-0.2°C 63% 3.8 mph ESE6.1 kmh ESE 6.8 mph10.9 kmh 30.24 in1024.0 mb 0.00 in0.0 mm 0.00 in/hr0.0 mm/hr 0.00 in0.0 mm
12:02 PM 43.9°F6.6°C 32.1°F0.1°C 63% 4.4 mph SE7.1 kmh SE 6.8 mph10.9 kmh 30.24 in1024.0 mb 0.00 in0.0 mm 0.00 in/hr0.0 mm/hr 0.00 in0.0 mm
11:57 AM 43.7°F6.5°C 31.9°F-0.1°C 63% 2.8 mph ESE4.5 kmh ESE 4.4 mph7.1 kmh 30.24 in1024.0 mb 0.00 in0.0 mm 0.00 in/hr0.0 mm/hr 0.00 in0.0 mm
11:52 AM 43.9°F6.6°C 32.1°F0.1°C 63% 2.8 mph ESE4.5 kmh ESE 5.4 mph8.7 kmh 30.24 in1024.0 mb 0.00 in0.0 mm 0.00 in/hr0.0 mm/hr 0.00 in0.0 mm
11:47 AM 43.7°F6.5°C 31.9°F-0.1°C 63% 3.0 mph E4.8 kmh E 5.8 mph9.3 kmh 30.24 in1024.0 mb 0.00 in0.0 mm 0.00 in/hr0.0 mm/hr 0.00 in0.0 mm
11:43 AM 43.3°F6.3°C 31.5°F-0.3°C 63% 4.4 mph E7.1 kmh E 5.8 mph9.3 kmh 30.24 in1024.0 mb 0.00 in0.0 mm 0.00 in/hr0.0 mm/hr 0.00 in0.0 mm
11:37 AM 43.2°F6.2°C 31.4°F-0.3°C 63% 3.0 mph ENE4.8 kmh ENE 7.6 mph12.2 kmh 30.24 in1024.0 mb 0.00 in0.0 mm 0.00 in/hr0.0 mm/hr 0.00 in0.0 mm
11:32 AM 43.2°F6.2°C 31.4°F-0.3°C 63% 5.5 mph E8.9 kmh E 7.6 mph12.2 kmh 30.24 in1024.0 mb 0.00 in0.0 mm 0.00 in/hr0.0 mm/hr 0.00 in0.0 mm
11:27 AM 43.0°F6.1°C 31.7°F-0.2°C 64% 2.8 mph E4.5 kmh E 5.8 mph9.3 kmh 30.24 in1024.0 mb 0.00 in0.0 mm 0.00 in/hr0.0 mm/hr 0.00 in0.0 mm
11:22 AM 42.8°F6.0°C 31.0°F-0.6°C 63% 4.5 mph E7.2 kmh E 5.8 mph9.3 kmh 30.24 in1024.0 mb 0.00 in0.0 mm 0.00 in/hr0.0 mm/hr 0.00 in0.0 mm
11:17 AM 42.4°F5.8°C 31.1°F-0.5°C 64% 3.1 mph E5.0 kmh E 5.4 mph8.7 kmh 30.24 in1024.0 mb 0.00 in0.0 mm 0.00 in/hr0.0 mm/hr 0.00 in0.0 mm
11:12 AM 42.3°F5.7°C 31.0°F-0.6°C 64% 3.1 mph E5.0 kmh E 5.4 mph8.7 kmh 30.24 in1024.0 mb 0.00 in0.0 mm 0.00 in/hr0.0 mm/hr 0.00 in0.0 mm
11:06 AM 42.1°F5.6°C 30.8°F-0.7°C 64% 3.4 mph E5.5 kmh E 6.8 mph10.9 kmh 30.21 in1023.0 mb 0.00 in0.0 mm 0.00 in/hr0.0 mm/hr 0.00 in0.0 mm
11:01 AM 41.7°F5.4°C 30.4°F-0.9°C 64% 4.4 mph E7.1 kmh E 6.8 mph10.9 kmh 30.21 in1023.0 mb 0.00 in0.0 mm 0.00 in/hr0.0 mm/hr 0.00 in0.0 mm
10:56 AM 41.4°F5.2°C 30.1°F-1.1°C 64% 5.4 mph SE8.7 kmh SE 6.2 mph10.0 kmh 30.21 in1023.0 mb 0.00 in0.0 mm 0.00 in/hr0.0 mm/hr 0.00 in0.0 mm
10:51 AM 41.2°F5.1°C 29.9°F-1.2°C 64% 2.0 mph ENE3.2 kmh ENE 7.2 mph11.6 kmh 30.24 in1024.0 mb 0.00 in0.0 mm 0.00 in/hr0.0 mm/hr 0.00 in0.0 mm
10:46 AM 41.2°F5.1°C 29.9°F-1.2°C 64% 4.8 mph ESE7.7 kmh ESE 7.2 mph11.6 kmh 30.24 in1024.0 mb 0.00 in0.0 mm 0.00 in/hr0.0 mm/hr 0.00 in0.0 mm
10:41 AM 41.2°F5.1°C 29.9°F-1.2°C 64% 3.2 mph E5.1 kmh E 6.8 mph10.9 kmh 30.24 in1024.0 mb 0.00 in0.0 mm 0.00 in/hr0.0 mm/hr 0.00 in0.0 mm
10:36 AM 41.2°F5.1°C 29.9°F-1.2°C 64% 4.8 mph E7.7 kmh E 6.8 mph10.9 kmh 30.27 in1025.1 mb 0.00 in0.0 mm 0.00 in/hr0.0 mm/hr 0.00 in0.0 mm
10:31 AM 41.2°F5.1°C 29.9°F-1.2°C 64% 4.8 mph E7.7 kmh E 7.6 mph12.2 kmh 30.27 in1025.1 mb 0.00 in0.0 mm 0.00 in/hr0.0 mm/hr 0.00 in0.0 mm
10:26 AM 41.4°F5.2°C 30.1°F-1.1°C 64% 3.2 mph NE5.1 kmh NE 7.6 mph12.2 kmh 30.27 in1025.1 mb 0.00 in0.0 mm 0.00 in/hr0.0 mm/hr 0.00 in0.0 mm
10:21 AM 41.5°F5.3°C 30.7°F-0.7°C 65% 6.8 mph NNE10.9 kmh NNE 6.8 mph10.9 kmh 30.24 in1024.0 mb 0.00 in0.0 mm 0.00 in/hr0.0 mm/hr 0.00 in0.0 mm
10:16 AM 41.2°F5.1°C 30.4°F-0.9°C 65% 3.3 mph E5.3 kmh E 5.8 mph9.3 kmh 30.24 in1024.0 mb 0.00 in0.0 mm 0.00 in/hr0.0 mm/hr 0.00 in0.0 mm
10:11 AM 40.8°F4.9°C 30.0°F-1.1°C 65% 3.0 mph E4.8 kmh E 5.4 mph8.7 kmh 30.24 in1024.0 mb 0.00 in0.0 mm 0.00 in/hr0.0 mm/hr 0.00 in0.0 mm
10:06 AM 40.6°F4.8°C 29.8°F-1.2°C 65% 2.7 mph E4.3 kmh E 5.8 mph9.3 kmh 30.27 in1025.1 mb 0.00 in0.0 mm 0.00 in/hr0.0 mm/hr 0.00 in0.0 mm
10:01 AM 40.3°F4.6°C 29.5°F-1.4°C 65% 4.0 mph E6.4 kmh E 5.8 mph9.3 kmh 30.27 in1025.1 mb 0.00 in0.0 mm 0.00 in/hr0.0 mm/hr 0.00 in0.0 mm
09:56 AM 40.3°F4.6°C 29.5°F-1.4°C 65% 2.4 mph E3.9 kmh E 5.8 mph9.3 kmh 30.27 in1025.1 mb 0.00 in0.0 mm 0.00 in/hr0.0 mm/hr 0.00 in0.0 mm
09:51 AM 40.1°F4.5°C 29.3°F-1.5°C 65% 2.5 mph E4.0 kmh E 7.6 mph12.2 kmh 30.24 in1024.0 mb 0.00 in0.0 mm 0.00 in/hr0.0 mm/hr 0.00 in0.0 mm
09:45 AM 40.3°F4.6°C 29.5°F-1.4°C 65% 5.1 mph E8.2 kmh E 6.2 mph10.0 kmh 30.24 in1024.0 mb 0.00 in0.0 mm 0.00 in/hr0.0 mm/hr 0.00 in0.0 mm
09:40 AM 40.3°F4.6°C 29.5°F-1.4°C 65% 2.6 mph E4.2 kmh E 7.6 mph12.2 kmh 30.24 in1024.0 mb 0.00 in0.0 mm 0.00 in/hr0.0 mm/hr 0.00 in0.0 mm
09:35 AM 40.3°F4.6°C 29.5°F-1.4°C 65% 3.7 mph NE6.0 kmh NE 7.6 mph12.2 kmh 30.24 in1024.0 mb 0.00 in0.0 mm 0.00 in/hr0.0 mm/hr 0.00 in0.0 mm
09:30 AM 40.5°F4.7°C 30.1°F-1.1°C 66% 2.9 mph ENE4.7 kmh ENE 5.8 mph9.3 kmh 30.24 in1024.0 mb 0.00 in0.0 mm 0.00 in/hr0.0 mm/hr 0.00 in0.0 mm
09:25 AM 40.3°F4.6°C 29.9°F-1.2°C 66% 2.7 mph ENE4.3 kmh ENE 5.8 mph9.3 kmh 30.24 in1024.0 mb 0.00 in0.0 mm 0.00 in/hr0.0 mm/hr 0.00 in0.0 mm
09:20 AM 40.1°F4.5°C 30.1°F-1.1°C 67% 2.9 mph NE4.7 kmh NE 5.8 mph9.3 kmh 30.24 in1024.0 mb 0.00 in0.0 mm 0.00 in/hr0.0 mm/hr 0.00 in0.0 mm
09:15 AM 39.7°F4.3°C 29.8°F-1.2°C 67% 4.6 mph E7.4 kmh E 7.2 mph11.6 kmh 30.24 in1024.0 mb 0.00 in0.0 mm 0.00 in/hr0.0 mm/hr 0.00 in0.0 mm
09:10 AM 39.9°F4.4°C 29.9°F-1.2°C 67% 4.4 mph NE7.1 kmh NE 8.0 mph12.9 kmh 30.24 in1024.0 mb 0.00 in0.0 mm 0.00 in/hr0.0 mm/hr 0.00 in0.0 mm
09:05 AM 39.9°F4.4°C 30.3°F-0.9°C 68% 4.1 mph NE6.6 kmh NE 8.0 mph12.9 kmh 30.21 in1023.0 mb 0.00 in0.0 mm 0.00 in/hr0.0 mm/hr 0.00 in0.0 mm
09:00 AM 39.9°F4.4°C 30.3°F-0.9°C 68% 4.8 mph NE7.7 kmh NE 6.8 mph10.9 kmh 30.21 in1023.0 mb 0.00 in0.0 mm 0.00 in/hr0.0 mm/hr 0.00 in0.0 mm
08:54 AM 39.7°F4.3°C 30.2°F-1.0°C 68% 2.8 mph E4.5 kmh E 6.8 mph10.9 kmh 30.21 in1023.0 mb 0.00 in0.0 mm 0.00 in/hr0.0 mm/hr 0.00 in0.0 mm
08:49 AM 39.7°F4.3°C 30.5°F-0.8°C 69% 4.4 mph E7.1 kmh E 6.8 mph10.9 kmh 30.21 in1023.0 mb 0.00 in0.0 mm 0.00 in/hr0.0 mm/hr 0.00 in0.0 mm
08:44 AM 39.7°F4.3°C 30.2°F-1.0°C 68% Calm Calm 6.2 mph10.0 kmh 30.21 in1023.0 mb 0.00 in0.0 mm 0.00 in/hr0.0 mm/hr 0.00 in0.0 mm
08:39 AM 39.7°F4.3°C 30.2°F-1.0°C 68% 4.6 mph NNE7.4 kmh NNE 9.0 mph14.5 kmh 30.21 in1023.0 mb 0.00 in0.0 mm 0.00 in/hr0.0 mm/hr 0.00 in0.0 mm
08:34 AM 39.7°F4.3°C 29.8°F-1.2°C 67% 4.2 mph NE6.8 kmh NE 9.0 mph14.5 kmh 30.24 in1024.0 mb 0.00 in0.0 mm 0.00 in/hr0.0 mm/hr 0.00 in0.0 mm
08:29 AM 39.7°F4.3°C 29.8°F-1.2°C 67% 2.2 mph ENE3.5 kmh ENE 5.4 mph8.7 kmh 30.24 in1024.0 mb 0.00 in0.0 mm 0.00 in/hr0.0 mm/hr 0.00 in0.0 mm
08:24 AM 39.7°F4.3°C 29.8°F-1.2°C 67% 3.8 mph NE6.1 kmh NE 5.4 mph8.7 kmh 30.24 in1024.0 mb 0.00 in0.0 mm 0.00 in/hr0.0 mm/hr 0.00 in0.0 mm
08:19 AM 39.7°F4.3°C 29.8°F-1.2°C 67% Calm Calm 4.0 mph6.4 kmh 30.21 in1023.0 mb 0.00 in0.0 mm 0.00 in/hr0.0 mm/hr 0.00 in0.0 mm
08:13 AM 39.6°F4.2°C 29.7°F-1.3°C 67% 2.8 mph E4.5 kmh E 3.2 mph5.1 kmh 30.21 in1023.0 mb 0.00 in0.0 mm 0.00 in/hr0.0 mm/hr 0.00 in0.0 mm
08:08 AM 39.6°F4.2°C 29.7°F-1.3°C 67% 1.8 mph E2.9 kmh E 5.0 mph8.0 kmh 30.21 in1023.0 mb 0.00 in0.0 mm 0.00 in/hr0.0 mm/hr 0.00 in0.0 mm
08:03 AM 39.6°F4.2°C 29.3°F-1.5°C 66% 3.1 mph E5.0 kmh E 6.2 mph10.0 kmh 30.24 in1024.0 mb 0.00 in0.0 mm 0.00 in/hr0.0 mm/hr 0.00 in0.0 mm
07:58 AM 39.6°F4.2°C 29.3°F-1.5°C 66% 2.6 mph NE4.2 kmh NE 6.8 mph10.9 kmh 30.24 in1024.0 mb 0.00 in0.0 mm 0.00 in/hr0.0 mm/hr 0.00 in0.0 mm
07:53 AM 39.6°F4.2°C 29.3°F-1.5°C 66% 4.3 mph NE6.9 kmh NE 6.8 mph10.9 kmh 30.24 in1024.0 mb 0.00 in0.0 mm 0.00 in/hr0.0 mm/hr 0.00 in0.0 mm
07:48 AM 39.6°F4.2°C 29.3°F-1.5°C 66% 4.3 mph NE6.9 kmh NE 5.8 mph9.3 kmh 30.15 in1021.0 mb 0.00 in0.0 mm 0.00 in/hr0.0 mm/hr 0.00 in0.0 mm
07:43 AM 39.6°F4.2°C 29.3°F-1.5°C 66% 2.4 mph E3.9 kmh E 5.8 mph9.3 kmh 30.15 in1021.0 mb 0.00 in0.0 mm 0.00 in/hr0.0 mm/hr 0.00 in0.0 mm
07:38 AM 39.6°F4.2°C 29.3°F-1.5°C 66% 3.3 mph ENE5.3 kmh ENE 5.8 mph9.3 kmh 30.15 in1021.0 mb 0.00 in0.0 mm 0.00 in/hr0.0 mm/hr 0.00 in0.0 mm
07:33 AM 39.6°F4.2°C 29.3°F-1.5°C 66% 2.0 mph ENE3.2 kmh ENE 5.4 mph8.7 kmh 30.18 in1022.0 mb 0.00 in0.0 mm 0.00 in/hr0.0 mm/hr 0.00 in0.0 mm
07:28 AM 39.6°F4.2°C 29.3°F-1.5°C 66% 2.6 mph E4.2 kmh E 8.0 mph12.9 kmh 30.18 in1022.0 mb 0.00 in0.0 mm 0.00 in/hr0.0 mm/hr 0.00 in0.0 mm
07:23 AM 39.6°F4.2°C 29.3°F-1.5°C 66% 6.3 mph NE10.1 kmh NE 8.0 mph12.9 kmh 30.18 in1022.0 mb 0.00 in0.0 mm 0.00 in/hr0.0 mm/hr 0.00 in0.0 mm
07:18 AM 39.6°F4.2°C 29.7°F-1.3°C 67% 5.2 mph NE8.4 kmh NE 7.6 mph12.2 kmh 30.18 in1022.0 mb 0.00 in0.0 mm 0.00 in/hr0.0 mm/hr 0.00 in0.0 mm
07:13 AM 39.6°F4.2°C 29.3°F-1.5°C 66% 3.5 mph NNE5.6 kmh NNE 6.2 mph10.0 kmh 30.18 in1022.0 mb 0.00 in0.0 mm 0.00 in/hr0.0 mm/hr 0.00 in0.0 mm
07:08 AM 39.7°F4.3°C 29.4°F-1.4°C 66% 3.5 mph NE5.6 kmh NE 5.0 mph8.0 kmh 30.18 in1022.0 mb 0.00 in0.0 mm 0.00 in/hr0.0 mm/hr 0.00 in0.0 mm
07:03 AM 39.7°F4.3°C 29.4°F-1.4°C 66% Calm Calm 5.4 mph8.7 kmh 30.18 in1022.0 mb 0.00 in0.0 mm 0.00 in/hr0.0 mm/hr 0.00 in0.0 mm
06:58 AM 39.7°F4.3°C 28.9°F-1.7°C 65% 2.9 mph NE4.7 kmh NE 5.0 mph8.0 kmh 30.18 in1022.0 mb 0.00 in0.0 mm 0.00 in/hr0.0 mm/hr 0.00 in0.0 mm
06:51 AM 39.9°F4.4°C 29.1°F-1.6°C 65% 1.8 mph ENE2.9 kmh ENE 4.0 mph6.4 kmh 30.15 in1021.0 mb 0.00 in0.0 mm 0.00 in/hr0.0 mm/hr 0.00 in0.0 mm
06:46 AM 39.9°F4.4°C 29.5°F-1.4°C 66% 2.2 mph NE3.5 kmh NE 6.8 mph10.9 kmh 30.15 in1021.0 mb 0.00 in0.0 mm 0.00 in/hr0.0 mm/hr 0.00 in0.0 mm
06:41 AM 39.9°F4.4°C 29.5°F-1.4°C 66% 4.1 mph NE6.6 kmh NE 6.8 mph10.9 kmh 30.15 in1021.0 mb 0.00 in0.0 mm 0.00 in/hr0.0 mm/hr 0.00 in0.0 mm
06:36 AM 39.9°F4.4°C 29.5°F-1.4°C 66% Calm Calm 5.4 mph8.7 kmh 30.18 in1022.0 mb 0.00 in0.0 mm 0.00 in/hr0.0 mm/hr 0.00 in0.0 mm
06:31 AM 39.9°F4.4°C 29.5°F-1.4°C 66% 5.4 mph NE8.7 kmh NE 5.4 mph8.7 kmh 30.18 in1022.0 mb 0.00 in0.0 mm 0.00 in/hr0.0 mm/hr 0.00 in0.0 mm
06:26 AM 39.9°F4.4°C 29.1°F-1.6°C 65% 2.2 mph ENE3.5 kmh ENE 2.6 mph4.2 kmh 30.18 in1022.0 mb 0.00 in0.0 mm 0.00 in/hr0.0 mm/hr 0.00 in0.0 mm
06:21 AM 39.9°F4.4°C 29.1°F-1.6°C 65% Calm Calm 2.6 mph4.2 kmh 30.15 in1021.0 mb 0.00 in0.0 mm 0.00 in/hr0.0 mm/hr 0.00 in0.0 mm
06:16 AM 40.1°F4.5°C 29.3°F-1.5°C 65% 2.5 mph NNE4.0 kmh NNE 2.6 mph4.2 kmh 30.15 in1021.0 mb 0.00 in0.0 mm 0.00 in/hr0.0 mm/hr 0.00 in0.0 mm
06:11 AM 40.1°F4.5°C 29.7°F-1.3°C 66% Calm Calm -- 30.15 in1021.0 mb 0.00 in0.0 mm 0.00 in/hr0.0 mm/hr 0.00 in0.0 mm
06:06 AM 40.1°F4.5°C 29.7°F-1.3°C 66% Calm Calm 2.2 mph3.5 kmh 30.15 in1021.0 mb 0.00 in0.0 mm 0.00 in/hr0.0 mm/hr 0.00 in0.0 mm
06:01 AM 40.1°F4.5°C 29.3°F-1.5°C 65% 1.9 mph NNE3.1 kmh NNE 2.6 mph4.2 kmh 30.15 in1021.0 mb 0.00 in0.0 mm 0.00 in/hr0.0 mm/hr 0.00 in0.0 mm
05:56 AM 40.3°F4.6°C 29.5°F-1.4°C 65% 2.0 mph NNE3.2 kmh NNE 5.4 mph8.7 kmh 30.15 in1021.0 mb 0.00 in0.0 mm 0.00 in/hr0.0 mm/hr 0.00 in0.0 mm
05:50 AM 40.3°F4.6°C 29.5°F-1.4°C 65% 3.9 mph NE6.3 kmh NE 6.2 mph10.0 kmh 30.18 in1022.0 mb 0.00 in0.0 mm 0.00 in/hr0.0 mm/hr 0.00 in0.0 mm
05:45 AM 40.3°F4.6°C 29.5°F-1.4°C 65% 4.8 mph NE7.7 kmh NE 7.2 mph11.6 kmh 30.18 in1022.0 mb 0.00 in0.0 mm 0.00 in/hr0.0 mm/hr 0.00 in0.0 mm
05:39 AM 40.3°F4.6°C 29.9°F-1.2°C 66% 4.4 mph NE7.1 kmh NE 7.2 mph11.6 kmh 30.18 in1022.0 mb 0.00 in0.0 mm 0.00 in/hr0.0 mm/hr 0.00 in0.0 mm
05:34 AM 40.3°F4.6°C 29.9°F-1.2°C 66% 3.8 mph NE6.1 kmh NE 7.2 mph11.6 kmh 30.21 in1023.0 mb 0.00 in0.0 mm 0.00 in/hr0.0 mm/hr 0.00 in0.0 mm
05:29 AM 40.3°F4.6°C 29.9°F-1.2°C 66% 4.2 mph NNE6.8 kmh NNE 7.2 mph11.6 kmh 30.21 in1023.0 mb 0.00 in0.0 mm 0.00 in/hr0.0 mm/hr 0.00 in0.0 mm
05:24 AM 40.5°F4.7°C 30.5°F-0.8°C 67% 5.7 mph NE9.2 kmh NE 6.2 mph10.0 kmh 30.21 in1023.0 mb 0.00 in0.0 mm 0.00 in/hr0.0 mm/hr 0.00 in0.0 mm
05:18 AM 40.5°F4.7°C 30.1°F-1.1°C 66% 3.6 mph NE5.8 kmh NE 5.4 mph8.7 kmh 30.18 in1022.0 mb 0.00 in0.0 mm 0.00 in/hr0.0 mm/hr 0.00 in0.0 mm
05:13 AM 40.5°F4.7°C 30.1°F-1.1°C 66% 2.7 mph NE4.3 kmh NE 5.0 mph8.0 kmh 30.18 in1022.0 mb 0.00 in0.0 mm 0.00 in/hr0.0 mm/hr 0.00 in0.0 mm
05:08 AM 40.5°F4.7°C 29.7°F-1.3°C 65% Calm Calm 2.2 mph3.5 kmh 30.18 in1022.0 mb 0.00 in0.0 mm 0.00 in/hr0.0 mm/hr 0.00 in0.0 mm
05:03 AM 40.5°F4.7°C 29.7°F-1.3°C 65% Calm Calm 2.2 mph3.5 kmh 30.18 in1022.0 mb 0.00 in0.0 mm 0.00 in/hr0.0 mm/hr 0.00 in0.0 mm
04:58 AM 40.3°F4.6°C 29.5°F-1.4°C 65% Calm Calm -- 30.18 in1022.0 mb 0.00 in0.0 mm 0.00 in/hr0.0 mm/hr 0.00 in0.0 mm
04:53 AM 40.3°F4.6°C 29.1°F-1.6°C 64% Calm Calm 2.2 mph3.5 kmh 30.18 in1022.0 mb 0.00 in0.0 mm 0.00 in/hr0.0 mm/hr 0.00 in0.0 mm
04:48 AM 40.3°F4.6°C 29.1°F-1.6°C 64% Calm Calm 2.2 mph3.5 kmh 30.18 in1022.0 mb 0.00 in0.0 mm 0.00 in/hr0.0 mm/hr 0.00 in0.0 mm
04:43 AM 40.3°F4.6°C 29.1°F-1.6°C 64% Calm Calm -- 30.18 in1022.0 mb 0.00 in0.0 mm 0.00 in/hr0.0 mm/hr 0.00 in0.0 mm
04:38 AM 40.3°F4.6°C 29.1°F-1.6°C 64% Calm Calm -- 30.18 in1022.0 mb 0.00 in0.0 mm 0.00 in/hr0.0 mm/hr 0.00 in0.0 mm
04:33 AM 40.3°F4.6°C 29.1°F-1.6°C 64% Calm Calm -- 30.18 in1022.0 mb 0.00 in0.0 mm 0.00 in/hr0.0 mm/hr 0.00 in0.0 mm
04:28 AM 40.3°F4.6°C 29.1°F-1.6°C 64% Calm Calm -- 30.18 in1022.0 mb 0.00 in0.0 mm 0.00 in/hr0.0 mm/hr 0.00 in0.0 mm
04:23 AM 40.5°F4.7°C 29.3°F-1.5°C 64% Calm Calm -- 30.18 in1022.0 mb 0.00 in0.0 mm 0.00 in/hr0.0 mm/hr 0.00 in0.0 mm
04:17 AM 40.5°F4.7°C 29.3°F-1.5°C 64% Calm Calm -- 30.15 in1021.0 mb 0.00 in0.0 mm 0.00 in/hr0.0 mm/hr 0.00 in0.0 mm
04:12 AM 40.5°F4.7°C 28.9°F-1.7°C 63% Calm Calm -- 30.15 in1021.0 mb 0.00 in0.0 mm 0.00 in/hr0.0 mm/hr 0.00 in0.0 mm
04:06 AM 40.5°F4.7°C 28.9°F-1.7°C 63% Calm Calm -- 30.18 in1022.0 mb 0.00 in0.0 mm 0.00 in/hr0.0 mm/hr 0.00 in0.0 mm
04:01 AM 40.5°F4.7°C 28.9°F-1.7°C 63% Calm Calm -- 30.18 in1022.0 mb 0.00 in0.0 mm 0.00 in/hr0.0 mm/hr 0.00 in0.0 mm
03:56 AM 40.5°F4.7°C 28.9°F-1.7°C 63% Calm Calm -- 30.18 in1022.0 mb 0.00 in0.0 mm 0.00 in/hr0.0 mm/hr 0.00 in0.0 mm
03:51 AM 40.5°F4.7°C 28.9°F-1.7°C 63% Calm Calm -- 30.18 in1022.0 mb 0.00 in0.0 mm 0.00 in/hr0.0 mm/hr 0.00 in0.0 mm
03:46 AM 40.5°F4.7°C 29.3°F-1.5°C 64% Calm Calm -- 30.18 in1022.0 mb 0.00 in0.0 mm 0.00 in/hr0.0 mm/hr 0.00 in0.0 mm
03:41 AM 40.6°F4.8°C 28.9°F-1.7°C 63% Calm Calm -- 30.18 in1022.0 mb 0.00 in0.0 mm 0.00 in/hr0.0 mm/hr 0.00 in0.0 mm
03:35 AM 40.6°F4.8°C 28.5°F-1.9°C 62% Calm Calm -- 30.18 in1022.0 mb 0.00 in0.0 mm 0.00 in/hr0.0 mm/hr 0.00 in0.0 mm
03:30 AM 40.6°F4.8°C 28.5°F-1.9°C 62% Calm Calm -- 30.18 in1022.0 mb 0.00 in0.0 mm 0.00 in/hr0.0 mm/hr 0.00 in0.0 mm
03:25 AM 40.6°F4.8°C 28.5°F-1.9°C 62% Calm Calm -- 30.18 in1022.0 mb 0.00 in0.0 mm 0.00 in/hr0.0 mm/hr 0.00 in0.0 mm
03:20 AM 40.6°F4.8°C 28.5°F-1.9°C 62% Calm Calm -- 30.18 in1022.0 mb 0.00 in0.0 mm 0.00 in/hr0.0 mm/hr 0.00 in0.0 mm
03:14 AM 40.8°F4.9°C 28.7°F-1.8°C 62% Calm Calm -- 30.18 in1022.0 mb 0.00 in0.0 mm 0.00 in/hr0.0 mm/hr 0.00 in0.0 mm
03:09 AM 41.2°F5.1°C 28.6°F-1.9°C 61% Calm Calm 4.4 mph7.1 kmh 30.18 in1022.0 mb 0.00 in0.0 mm 0.00 in/hr0.0 mm/hr 0.00 in0.0 mm
03:04 AM 41.2°F5.1°C 28.2°F-2.1°C 59% Calm Calm 4.4 mph7.1 kmh 30.15 in1021.0 mb 0.00 in0.0 mm 0.00 in/hr0.0 mm/hr 0.00 in0.0 mm
02:59 AM 41.2°F5.1°C 28.2°F-2.1°C 59% 2.8 mph E4.5 kmh E 4.0 mph6.4 kmh 30.15 in1021.0 mb 0.00 in0.0 mm 0.00 in/hr0.0 mm/hr 0.00 in0.0 mm
02:54 AM 41.2°F5.1°C 28.2°F-2.1°C 59% Calm Calm 2.6 mph4.2 kmh 30.15 in1021.0 mb 0.00 in0.0 mm 0.00 in/hr0.0 mm/hr 0.00 in0.0 mm
02:49 AM 41.2°F5.1°C 28.2°F-2.1°C 59% Calm Calm -- 30.15 in1021.0 mb 0.00 in0.0 mm 0.00 in/hr0.0 mm/hr 0.00 in0.0 mm
02:44 AM 41.2°F5.1°C 28.2°F-2.1°C 59% Calm Calm 2.6 mph4.2 kmh 30.15 in1021.0 mb 0.00 in0.0 mm 0.00 in/hr0.0 mm/hr 0.00 in0.0 mm
02:39 AM 41.4°F5.2°C 28.4°F-2.0°C 59% 2.6 mph ESE4.2 kmh ESE 2.6 mph4.2 kmh 30.15 in1021.0 mb 0.00 in0.0 mm 0.00 in/hr0.0 mm/hr 0.00 in0.0 mm
02:34 AM 41.4°F5.2°C 28.4°F-2.0°C 59% Calm Calm 3.2 mph5.1 kmh 30.15 in1021.0 mb 0.00 in0.0 mm 0.00 in/hr0.0 mm/hr 0.00 in0.0 mm
02:29 AM 41.4°F5.2°C 28.4°F-2.0°C 59% 2.0 mph ESE3.2 kmh ESE 4.0 mph6.4 kmh 30.15 in1021.0 mb 0.00 in0.0 mm 0.00 in/hr0.0 mm/hr 0.00 in0.0 mm
02:24 AM 41.5°F5.3°C 28.5°F-1.9°C 59% 2.8 mph E4.5 kmh E 4.4 mph7.1 kmh 30.15 in1021.0 mb 0.00 in0.0 mm 0.00 in/hr0.0 mm/hr 0.00 in0.0 mm
02:19 AM 41.5°F5.3°C 28.5°F-1.9°C 59% 2.6 mph ESE4.2 kmh ESE 4.4 mph7.1 kmh 30.15 in1021.0 mb 0.00 in0.0 mm 0.00 in/hr0.0 mm/hr 0.00 in0.0 mm
02:14 AM 41.4°F5.2°C 28.4°F-2.0°C 59% 2.7 mph E4.3 kmh E 4.0 mph6.4 kmh 30.15 in1021.0 mb 0.00 in0.0 mm 0.00 in/hr0.0 mm/hr 0.00 in0.0 mm
02:09 AM 41.4°F5.2°C 28.8°F-1.8°C 61% Calm Calm -- 30.15 in1021.0 mb 0.00 in0.0 mm 0.00 in/hr0.0 mm/hr 0.00 in0.0 mm
02:04 AM 41.4°F5.2°C 28.8°F-1.8°C 61% Calm Calm -- 30.18 in1022.0 mb 0.00 in0.0 mm 0.00 in/hr0.0 mm/hr 0.00 in0.0 mm
01:59 AM 41.2°F5.1°C 28.6°F-1.9°C 61% Calm Calm -- 30.18 in1022.0 mb 0.00 in0.0 mm 0.00 in/hr0.0 mm/hr 0.00 in0.0 mm
01:53 AM 41.4°F5.2°C 28.8°F-1.8°C 61% Calm Calm 4.0 mph6.4 kmh 30.18 in1022.0 mb 0.00 in0.0 mm 0.00 in/hr0.0 mm/hr 0.00 in0.0 mm
01:48 AM 41.4°F5.2°C 28.8°F-1.8°C 61% 2.1 mph ESE3.4 kmh ESE 4.0 mph6.4 kmh 30.18 in1022.0 mb 0.00 in0.0 mm 0.00 in/hr0.0 mm/hr 0.00 in0.0 mm
01:43 AM 41.2°F5.1°C 29.1°F-1.6°C 62% 2.8 mph ESE4.5 kmh ESE 4.0 mph6.4 kmh 30.18 in1022.0 mb 0.00 in0.0 mm 0.00 in/hr0.0 mm/hr 0.00 in0.0 mm
01:38 AM 41.0°F5.0°C 29.3°F-1.5°C 63% Calm Calm 4.0 mph6.4 kmh 30.18 in1022.0 mb 0.00 in0.0 mm 0.00 in/hr0.0 mm/hr 0.00 in0.0 mm
01:33 AM 40.8°F4.9°C 29.6°F-1.3°C 64% 1.8 mph E2.9 kmh E 2.6 mph4.2 kmh 30.15 in1021.0 mb 0.00 in0.0 mm 0.00 in/hr0.0 mm/hr 0.00 in0.0 mm
01:28 AM 40.6°F4.8°C 29.4°F-1.4°C 64% 2.0 mph E3.2 kmh E 3.2 mph5.1 kmh 30.15 in1021.0 mb 0.00 in0.0 mm 0.00 in/hr0.0 mm/hr 0.00 in0.0 mm
01:23 AM 40.3°F4.6°C 29.5°F-1.4°C 65% 2.5 mph E4.0 kmh E 3.2 mph5.1 kmh 30.15 in1021.0 mb 0.00 in0.0 mm 0.00 in/hr0.0 mm/hr 0.00 in0.0 mm
01:18 AM 39.6°F4.2°C 29.7°F-1.3°C 67% Calm Calm -- 30.18 in1022.0 mb 0.00 in0.0 mm 0.00 in/hr0.0 mm/hr 0.00 in0.0 mm
01:13 AM 39.2°F4.0°C 30.1°F-1.1°C 69% Calm Calm -- 30.18 in1022.0 mb 0.00 in0.0 mm 0.00 in/hr0.0 mm/hr 0.00 in0.0 mm
01:08 AM 39.2°F4.0°C 30.8°F-0.7°C 72% Calm Calm -- 30.18 in1022.0 mb 0.00 in0.0 mm 0.00 in/hr0.0 mm/hr 0.00 in0.0 mm
01:00 AM 39.2°F4.0°C 30.5°F-0.8°C 70% Calm Calm -- 30.18 in1022.0 mb 0.00 in0.0 mm 0.00 in/hr0.0 mm/hr 0.00 in0.0 mm
12:55 AM 39.4°F4.1°C 29.9°F-1.2°C 68% Calm Calm -- 30.18 in1022.0 mb 0.00 in0.0 mm 0.00 in/hr0.0 mm/hr 0.00 in0.0 mm
12:49 AM 39.6°F4.2°C 29.3°F-1.5°C 66% Calm Calm -- 30.18 in1022.0 mb 0.00 in0.0 mm 0.00 in/hr0.0 mm/hr 0.00 in0.0 mm
12:44 AM 39.7°F4.3°C 28.9°F-1.7°C 65% Calm Calm -- 30.18 in1022.0 mb 0.00 in0.0 mm 0.00 in/hr0.0 mm/hr 0.00 in0.0 mm
12:39 AM 39.7°F4.3°C 29.4°F-1.4°C 66% Calm Calm -- 30.18 in1022.0 mb 0.00 in0.0 mm 0.00 in/hr0.0 mm/hr 0.00 in0.0 mm
12:34 AM 39.7°F4.3°C 28.9°F-1.7°C 65% Calm Calm 4.0 mph6.4 kmh 30.18 in1022.0 mb 0.00 in0.0 mm 0.00 in/hr0.0 mm/hr 0.00 in0.0 mm
12:29 AM 39.7°F4.3°C 29.4°F-1.4°C 66% 2.2 mph NE3.5 kmh NE 4.0 mph6.4 kmh 30.18 in1022.0 mb 0.00 in0.0 mm 0.00 in/hr0.0 mm/hr 0.00 in0.0 mm
12:24 AM 39.7°F4.3°C 29.4°F-1.4°C 66% 3.1 mph NE5.0 kmh NE 4.0 mph6.4 kmh 30.18 in1022.0 mb 0.00 in0.0 mm 0.00 in/hr0.0 mm/hr 0.00 in0.0 mm
12:19 AM 39.7°F4.3°C 29.8°F-1.2°C 67% Calm Calm -- 30.18 in1022.0 mb 0.00 in0.0 mm 0.00 in/hr0.0 mm/hr 0.00 in0.0 mm
12:14 AM 39.9°F4.4°C 29.9°F-1.2°C 67% Calm Calm -- 30.18 in1022.0 mb 0.00 in0.0 mm 0.00 in/hr0.0 mm/hr 0.00 in0.0 mm
12:09 AM 39.9°F4.4°C 29.1°F-1.6°C 65% Calm Calm -- 30.18 in1022.0 mb 0.00 in0.0 mm 0.00 in/hr0.0 mm/hr 0.00 in0.0 mm
12:04 AM 40.3°F4.6°C 29.1°F-1.6°C 64% Calm Calm -- 30.18 in1022.0 mb 0.00 in0.0 mm 0.00 in/hr0.0 mm/hr 0.00 in0.0 mm